Wayton, Arkansas
Current Conditions -  °F | °C
As of 6:53 AM on Friday 28 Nov 2014 (Local Time) from KHRO Reporting Station
Clear Clear  
Wind Chill: 28°   Ceiling: Unl
Heat Index: 36°   Visibility: 10mi
Dew Point: 27°   Wind: 12mph
Humidity: 70%   Direction: 150°SSE
Pressure: 30.22"   Gusts: NA
Location:  35.8413°N, 93.3507°W
Report Text: KHRO 281253Z AUTO 15010KT 10SM CLR 02/M03 A3022 RMK AO2 SLP240 T00221028
Loading
Personal Weather Stations






























Interactive Weather Map New forecast layout! Learn more

10-Day Weather Forecast

Advertisements
Track Severe Weather on mobile